createdAt,value
2018-02-02T00:02:02.376Z,10.17
2018-02-02T00:04:28.508Z,14.37
2018-02-02T00:06:54.656Z,12.43
2018-02-02T00:09:20.821Z,12.17
2018-02-02T00:11:46.978Z,13.20
2018-02-02T00:14:13.154Z,12.83
2018-02-02T00:16:39.312Z,13.13
2018-02-02T00:19:05.428Z,9.13
2018-02-02T00:21:31.711Z,9.90
2018-02-02T00:23:57.892Z,9.80
2018-02-02T00:26:24.052Z,13.17
2018-02-02T00:28:50.180Z,15.60
2018-02-02T00:31:16.400Z,8.23
2018-02-02T00:33:42.540Z,11.27
2018-02-02T00:36:08.716Z,8.43
2018-02-02T00:38:34.949Z,6.27
2018-02-02T00:41:01.079Z,16.27
2018-02-02T00:43:27.249Z,9.67
2018-02-02T00:45:53.554Z,6.13
2018-02-02T00:48:19.696Z,16.53
2018-02-02T00:50:51.943Z,10.00
2018-02-02T00:53:18.240Z,8.13
2018-02-02T00:55:44.380Z,12.43
2018-02-02T00:58:10.561Z,5.93
2018-02-02T01:00:36.772Z,15.77
2018-02-02T01:03:02.937Z,7.00
2018-02-02T01:05:29.083Z,14.53
2018-02-02T01:07:55.343Z,8.27
2018-02-02T01:10:21.476Z,11.23
2018-02-02T01:12:47.622Z,10.37
2018-02-02T01:15:13.779Z,14.97
2018-02-02T01:17:39.901Z,11.47
2018-02-02T01:20:06.052Z,9.63
2018-02-02T01:22:32.198Z,4.13
2018-02-02T01:24:58.389Z,11.90
2018-02-02T01:27:24.560Z,7.57
2018-02-02T01:29:50.741Z,7.57
2018-02-02T01:32:16.887Z,11.83
2018-02-02T01:34:43.073Z,8.63
2018-02-02T01:37:09.243Z,7.30
2018-02-02T01:39:35.368Z,7.07
2018-02-02T01:42:01.522Z,9.83
2018-02-02T01:44:27.698Z,9.70
2018-02-02T01:46:53.866Z,6.33
2018-02-02T01:49:20.027Z,7.50
2018-02-02T01:51:46.172Z,8.67
2018-02-02T01:54:12.352Z,6.53
2018-02-02T01:56:38.487Z,8.30
2018-02-02T01:59:04.666Z,9.00
2018-02-02T02:01:30.897Z,9.10
2018-02-02T02:03:57.067Z,14.57
2018-02-02T02:06:23.215Z,8.90
2018-02-02T02:08:49.453Z,10.47
2018-02-02T02:11:15.592Z,9.33
2018-02-02T02:13:41.731Z,6.23
2018-02-02T02:16:07.971Z,13.73
2018-02-02T02:18:34.870Z,11.83
2018-02-02T02:21:01.017Z,10.20
2018-02-02T02:23:27.214Z,11.53
2018-02-02T02:25:53.376Z,10.03
2018-02-02T02:28:19.512Z,9.97
2018-02-02T02:30:45.760Z,7.60
2018-02-02T02:33:11.880Z,6.37
2018-02-02T02:35:38.019Z,10.90
2018-02-02T02:38:04.212Z,6.00
2018-02-02T02:40:30.360Z,9.20
2018-02-02T02:42:56.535Z,8.17
2018-02-02T02:45:22.675Z,8.03
2018-02-02T02:47:48.823Z,7.73
2018-02-02T02:50:15.011Z,8.07
2018-02-02T02:52:41.175Z,6.67
2018-02-02T02:55:07.330Z,5.83
2018-02-02T02:57:33.464Z,7.50
2018-02-02T02:59:59.791Z,11.47
2018-02-02T03:02:26.544Z,8.77
2018-02-02T03:04:52.670Z,8.50
2018-02-02T03:07:18.843Z,11.13
2018-02-02T03:09:44.983Z,8.03
2018-02-02T03:12:11.137Z,7.10
2018-02-02T03:14:37.389Z,5.73
2018-02-02T03:17:03.518Z,9.27
2018-02-02T03:19:29.664Z,6.10
2018-02-02T03:21:55.815Z,7.37
2018-02-02T03:24:21.988Z,8.03
2018-02-02T03:26:48.128Z,10.20
2018-02-02T03:29:14.314Z,8.47
2018-02-02T03:31:40.487Z,10.23
2018-02-02T03:34:06.718Z,7.93
2018-02-02T03:36:32.964Z,9.47
2018-02-02T03:38:59.129Z,6.53
2018-02-02T03:41:25.246Z,9.43
2018-02-02T03:43:51.409Z,11.17
2018-02-02T03:46:17.556Z,8.83
2018-02-02T03:48:43.728Z,9.70
2018-02-02T03:51:09.949Z,11.00
2018-02-02T03:53:36.109Z,9.07
2018-02-02T03:56:02.244Z,10.27
2018-02-02T03:58:28.442Z,11.33
2018-02-02T04:00:55.270Z,4.00
2018-02-02T04:03:21.473Z,6.63
2018-02-02T04:05:47.646Z,7.50
2018-02-02T04:08:13.788Z,7.63
2018-02-02T04:10:39.956Z,4.50
2018-02-02T04:13:06.134Z,9.00
2018-02-02T04:15:32.313Z,8.00
2018-02-02T04:17:58.441Z,12.23
2018-02-02T04:20:24.674Z,14.57
2018-02-02T04:22:50.825Z,9.47
2018-02-02T04:25:18.591Z,7.90
2018-02-02T04:27:44.811Z,12.00
2018-02-02T04:30:11.028Z,7.77
2018-02-02T04:32:37.237Z,5.07
2018-02-02T04:35:10.351Z,14.00
2018-02-02T04:37:36.537Z,10.70
2018-02-02T04:40:02.670Z,4.47
2018-02-02T04:42:28.899Z,9.87
2018-02-02T04:44:55.054Z,11.30
2018-02-02T04:47:21.208Z,7.87
2018-02-02T04:49:47.439Z,8.50
2018-02-02T04:52:13.634Z,9.33
2018-02-02T04:54:39.758Z,8.10
2018-02-02T04:57:05.928Z,9.60
2018-02-02T04:59:32.048Z,13.13
2018-02-02T05:01:58.231Z,10.17
2018-02-02T05:04:24.518Z,10.30
2018-02-02T05:06:50.683Z,13.90
2018-02-02T05:09:16.835Z,12.37
2018-02-02T05:11:43.039Z,10.10
2018-02-02T05:14:09.203Z,9.97
2018-02-02T05:16:35.339Z,12.43
2018-02-02T05:19:01.552Z,15.27
2018-02-02T05:21:27.764Z,8.83
2018-02-02T05:23:53.924Z,13.23
2018-02-02T05:26:20.099Z,9.20
2018-02-02T05:28:46.245Z,9.30
2018-02-02T05:31:12.386Z,11.20
2018-02-02T05:33:38.563Z,17.67
2018-02-02T05:36:04.727Z,10.83
2018-02-02T05:38:30.903Z,12.40
2018-02-02T05:40:57.088Z,15.43
2018-02-02T05:43:23.268Z,10.53
2018-02-02T05:45:49.407Z,16.03
2018-02-02T05:48:15.558Z,15.33
2018-02-02T05:50:41.739Z,15.13
2018-02-02T05:53:07.866Z,11.33
2018-02-02T05:55:34.030Z,13.73
2018-02-02T05:58:00.252Z,8.77
2018-02-02T06:00:26.406Z,10.10
2018-02-02T06:02:52.568Z,13.67
2018-02-02T06:05:18.718Z,9.73
2018-02-02T06:07:44.878Z,11.63
2018-02-02T06:10:11.067Z,10.30
2018-02-02T06:12:37.233Z,14.07
2018-02-02T06:15:03.409Z,14.43
2018-02-02T06:17:29.579Z,12.37
2018-02-02T06:19:55.809Z,12.70
2018-02-02T06:22:21.955Z,13.50
2018-02-02T06:24:48.165Z,10.47
2018-02-02T06:27:14.318Z,16.30
2018-02-02T06:29:40.464Z,15.30
2018-02-02T06:32:06.607Z,15.40
2018-02-02T06:34:32.768Z,16.80
2018-02-02T06:37:01.927Z,11.37
2018-02-02T06:39:28.168Z,9.80
2018-02-02T06:41:54.348Z,19.50
2018-02-02T06:44:20.475Z,15.97
2018-02-02T06:46:46.703Z,14.77
2018-02-02T06:49:12.894Z,12.80
2018-02-02T06:51:39.089Z,16.63
2018-02-02T06:54:05.335Z,18.07
2018-02-02T06:56:31.617Z,16.33
2018-02-02T06:58:57.773Z,11.90
2018-02-02T07:01:23.993Z,14.17
2018-02-02T07:03:50.166Z,13.73
2018-02-02T07:06:16.344Z,13.43
2018-02-02T07:08:42.566Z,15.70
2018-02-02T07:11:08.808Z,11.57
2018-02-02T07:13:34.942Z,19.40
2018-02-02T07:16:01.166Z,15.03
2018-02-02T07:18:27.350Z,14.43
2018-02-02T07:20:53.556Z,12.67
2018-02-02T07:23:19.696Z,16.40
2018-02-02T07:25:46.843Z,11.00
2018-02-02T07:28:12.979Z,17.60
2018-02-02T07:30:39.285Z,13.77
2018-02-02T07:33:05.431Z,12.87
2018-02-02T07:35:31.587Z,15.93
2018-02-02T07:37:57.854Z,13.07
2018-02-02T07:40:24.004Z,11.77
2018-02-02T07:42:50.161Z,10.77
2018-02-02T07:45:16.399Z,11.43
2018-02-02T07:47:42.550Z,10.47
2018-02-02T07:50:08.751Z,16.57
2018-02-02T07:52:34.975Z,13.67
2018-02-02T07:55:01.204Z,14.13
2018-02-02T07:57:27.403Z,15.23
2018-02-02T07:59:53.581Z,13.40
2018-02-02T08:02:19.863Z,18.60
2018-02-02T08:04:46.077Z,17.60
2018-02-02T08:07:12.225Z,11.20
2018-02-02T08:09:38.433Z,13.13
2018-02-02T08:12:04.617Z,13.13
2018-02-02T08:14:30.945Z,13.07
2018-02-02T08:16:57.094Z,14.90
2018-02-02T08:19:23.304Z,10.70
2018-02-02T08:21:49.529Z,10.07
2018-02-02T08:24:15.732Z,10.67
2018-02-02T08:26:41.870Z,13.33
2018-02-02T08:29:08.071Z,10.23
2018-02-02T08:31:34.278Z,15.37
2018-02-02T08:34:00.468Z,17.50
2018-02-02T08:36:26.674Z,11.00
2018-02-02T08:38:52.926Z,18.93
2018-02-02T08:41:19.023Z,14.07
2018-02-02T08:43:45.166Z,14.70
2018-02-02T08:46:11.296Z,12.53
2018-02-02T08:48:37.482Z,15.47
2018-02-02T08:51:03.669Z,16.23
2018-02-02T08:53:29.815Z,7.13
2018-02-02T08:55:55.922Z,8.80
2018-02-02T08:58:22.062Z,11.07
2018-02-02T09:00:54.310Z,13.03
2018-02-02T09:03:20.452Z,16.40
2018-02-02T09:05:46.640Z,15.30
2018-02-02T09:08:12.753Z,17.50
2018-02-02T09:10:38.925Z,12.63
2018-02-02T09:13:05.094Z,16.80
2018-02-02T09:15:33.381Z,14.10
2018-02-02T09:17:59.590Z,15.17
2018-02-02T09:20:25.792Z,16.10
2018-02-02T09:22:51.924Z,15.33
2018-02-02T09:25:18.192Z,11.77
2018-02-02T09:27:44.266Z,14.03
2018-02-02T09:30:10.479Z,9.53
2018-02-02T09:32:36.694Z,11.20
2018-02-02T09:35:02.938Z,13.93
2018-02-02T09:37:29.200Z,17.63
2018-02-02T09:39:55.408Z,13.67
2018-02-02T09:42:21.574Z,14.97
2018-02-02T09:44:47.779Z,14.13
2018-02-02T09:47:13.947Z,12.00
2018-02-02T09:49:40.137Z,10.13
2018-02-02T09:52:06.341Z,10.33
2018-02-02T09:54:32.516Z,8.73
2018-02-02T09:56:58.683Z,6.27
2018-02-02T09:59:24.788Z,8.00
2018-02-02T10:01:51.013Z,6.00
2018-02-02T10:04:17.168Z,3.73
2018-02-02T10:06:43.420Z,4.43
2018-02-02T10:09:09.660Z,2.43
2018-02-02T10:11:35.954Z,3.63
2018-02-02T10:14:02.106Z,3.30
2018-02-02T10:16:28.246Z,1.33
2018-02-02T10:18:54.428Z,4.87
2018-02-02T10:21:20.622Z,4.93
2018-02-02T10:23:46.753Z,3.60
2018-02-02T10:26:12.933Z,5.33
2018-02-02T10:28:39.170Z,5.50
2018-02-02T10:31:05.412Z,6.87
2018-02-02T10:33:31.540Z,7.23
2018-02-02T10:35:57.696Z,5.23
2018-02-02T10:38:23.852Z,8.37
2018-02-02T10:40:50.039Z,8.53
2018-02-02T10:43:16.186Z,6.97
2018-02-02T10:45:42.352Z,8.70
2018-02-02T10:48:08.515Z,9.90
2018-02-02T10:50:34.853Z,10.90
2018-02-02T10:53:00.995Z,12.13
2018-02-02T10:55:27.127Z,18.77
2018-02-02T10:57:53.270Z,10.30
2018-02-02T11:00:19.552Z,8.77
2018-02-02T11:02:51.843Z,12.30
2018-02-02T11:05:18.053Z,14.53
2018-02-02T11:07:44.302Z,12.30
2018-02-02T11:10:10.440Z,12.73
2018-02-02T11:12:36.733Z,9.50
2018-02-02T11:15:02.983Z,18.10
2018-02-02T11:17:29.177Z,14.33
2018-02-02T11:19:55.384Z,10.83
2018-02-02T11:22:21.593Z,12.57
2018-02-02T11:24:47.718Z,11.30
2018-02-02T11:27:13.864Z,16.63
2018-02-02T11:29:40.056Z,9.80
2018-02-02T11:32:06.487Z,12.07
2018-02-02T11:34:32.659Z,12.47
2018-02-02T11:36:58.875Z,14.10
2018-02-02T11:39:25.061Z,8.63
2018-02-02T11:41:51.181Z,9.97
2018-02-02T11:44:17.334Z,8.93
2018-02-02T11:46:43.469Z,10.43
2018-02-02T11:49:09.741Z,11.07
2018-02-02T11:51:35.964Z,8.13
2018-02-02T11:54:02.114Z,7.73
2018-02-02T11:56:28.278Z,9.33
2018-02-02T11:58:54.464Z,10.07
2018-02-02T12:01:20.664Z,6.63
2018-02-02T12:03:46.804Z,9.03
2018-02-02T12:06:12.996Z,8.67
2018-02-02T12:08:39.159Z,7.50
2018-02-02T12:11:05.301Z,9.83
2018-02-02T12:13:31.450Z,13.50
2018-02-02T12:15:57.765Z,10.70
2018-02-02T12:18:24.037Z,13.47
2018-02-02T12:20:50.289Z,8.17
2018-02-02T12:23:22.534Z,6.57
2018-02-02T12:25:54.620Z,9.60
2018-02-02T12:28:26.684Z,7.17
2018-02-02T12:30:58.950Z,12.47
2018-02-02T12:33:31.234Z,9.80
2018-02-02T12:35:58.449Z,12.20
2018-02-02T12:38:24.716Z,15.37
2018-02-02T12:40:50.866Z,11.33
2018-02-02T12:43:17.005Z,13.80
2018-02-02T12:45:43.198Z,10.60
2018-02-02T12:51:19.260Z,11.90
2018-02-02T12:53:45.439Z,14.30
2018-02-02T12:56:11.596Z,9.90
2018-02-02T12:58:37.807Z,9.80
2018-02-02T13:01:03.958Z,6.87
2018-02-02T13:03:30.084Z,10.97
2018-02-02T13:05:56.239Z,11.43
2018-02-02T13:08:22.453Z,7.87
2018-02-02T13:10:48.708Z,10.87
2018-02-02T13:13:14.903Z,11.20
2018-02-02T13:15:41.073Z,10.80
2018-02-02T13:18:07.205Z,8.53
2018-02-02T13:20:33.352Z,9.47
2018-02-02T13:22:59.441Z,13.03
2018-02-02T13:25:25.634Z,12.07
2018-02-02T13:27:51.786Z,11.17
2018-02-02T13:30:17.887Z,8.33
2018-02-02T13:32:43.979Z,14.63
2018-02-02T13:35:10.137Z,9.97
2018-02-02T13:37:36.412Z,13.50
2018-02-02T13:40:02.532Z,8.93
2018-02-02T13:42:28.632Z,10.90
2018-02-02T13:44:54.782Z,8.77
2018-02-02T13:47:20.917Z,7.97
2018-02-02T13:49:47.064Z,9.53
2018-02-02T13:52:13.167Z,9.57
2018-02-02T13:54:39.282Z,7.20
2018-02-02T13:57:05.386Z,6.30
2018-02-02T13:59:31.543Z,8.53
2018-02-02T14:01:57.665Z,6.70
2018-02-02T14:04:23.798Z,7.60
2018-02-02T14:06:49.930Z,8.50
2018-02-02T14:09:16.103Z,7.30
2018-02-02T14:11:42.226Z,9.10
2018-02-02T14:14:08.360Z,4.93
2018-02-02T14:16:34.493Z,4.50
2018-02-02T14:19:00.650Z,4.57
2018-02-02T14:21:26.793Z,7.50
2018-02-02T14:23:52.888Z,7.23
2018-02-02T14:26:19.029Z,4.53
2018-02-02T14:28:45.170Z,6.17
2018-02-02T14:31:11.301Z,8.00
2018-02-02T14:33:37.385Z,7.60
2018-02-02T14:36:03.523Z,6.17
2018-02-02T14:38:29.713Z,8.03
2018-02-02T14:40:55.832Z,6.73
2018-02-02T14:43:21.971Z,6.80
2018-02-02T14:45:48.115Z,11.00
2018-02-02T14:48:14.350Z,6.40
2018-02-02T14:50:40.470Z,5.17
2018-02-02T14:53:06.860Z,10.30
2018-02-02T14:55:33.042Z,6.07
2018-02-02T14:57:59.262Z,4.47
2018-02-02T15:00:25.433Z,6.50
2018-02-02T15:02:51.523Z,5.30
2018-02-02T15:05:17.647Z,5.87
2018-02-02T15:07:43.808Z,5.10
2018-02-02T15:10:10.198Z,6.67
2018-02-02T15:12:36.311Z,7.07
2018-02-02T15:15:02.490Z,9.23
2018-02-02T15:17:28.592Z,6.90
2018-02-02T15:19:54.821Z,9.50
2018-02-02T15:22:24.811Z,28.57
2018-02-02T15:24:50.931Z,6.13
2018-02-02T15:27:17.116Z,5.67
2018-02-02T15:29:43.295Z,5.87
2018-02-02T15:32:09.555Z,6.73
2018-02-02T15:34:35.705Z,7.13
2018-02-02T15:37:01.867Z,7.27
2018-02-02T15:39:28.075Z,7.07
2018-02-02T15:41:54.156Z,8.13
2018-02-02T15:44:20.357Z,8.77
2018-02-02T15:46:46.624Z,7.17
2018-02-02T15:49:12.832Z,10.33
2018-02-02T15:51:39.126Z,7.23
2018-02-02T15:54:05.251Z,6.70
2018-02-02T15:56:31.505Z,7.73
2018-02-02T15:58:57.693Z,9.27
2018-02-02T16:01:23.854Z,5.50
2018-02-02T16:03:50.083Z,4.53
2018-02-02T16:06:16.228Z,3.87
2018-02-02T16:08:42.431Z,5.57
2018-02-02T16:11:08.601Z,8.93
2018-02-02T16:13:34.781Z,4.87
2018-02-02T16:16:00.979Z,14.00
2018-02-02T16:18:27.183Z,9.33
2018-02-02T16:20:53.427Z,6.90
2018-02-02T16:23:19.558Z,12.60
2018-02-02T16:25:45.746Z,11.97
2018-02-02T16:28:11.899Z,4.67
2018-02-02T16:30:38.014Z,6.63
2018-02-02T16:33:04.318Z,9.37
2018-02-02T16:35:30.536Z,6.60
2018-02-02T16:37:56.751Z,8.13
2018-02-02T16:40:22.939Z,7.43
2018-02-02T16:42:49.097Z,7.67
2018-02-02T16:45:15.300Z,7.37
2018-02-02T16:47:41.452Z,8.63
2018-02-02T16:50:07.706Z,9.90
2018-02-02T16:52:33.824Z,7.33
2018-02-02T16:55:00.087Z,12.10
2018-02-02T16:57:26.209Z,21.20
2018-02-02T16:59:52.357Z,18.13
2018-02-02T17:02:18.484Z,10.73
2018-02-02T17:04:44.658Z,8.20
2018-02-02T17:07:10.803Z,9.97
2018-02-02T17:09:36.926Z,11.37
2018-02-02T17:12:03.122Z,12.60
2018-02-02T17:14:29.282Z,8.37
2018-02-02T17:16:55.455Z,15.47
2018-02-02T17:19:21.596Z,15.10
2018-02-02T17:21:47.729Z,25.13
2018-02-02T17:24:13.949Z,17.47
2018-02-02T17:26:40.110Z,31.53
2018-02-02T17:29:06.228Z,37.03
2018-02-02T17:31:32.389Z,32.40
2018-02-02T17:33:58.566Z,15.40
2018-02-02T17:36:24.727Z,19.87
2018-02-02T17:38:50.896Z,14.43
2018-02-02T17:41:17.045Z,24.10
2018-02-02T17:43:43.201Z,19.70
2018-02-02T17:46:09.391Z,16.53
2018-02-02T17:48:35.545Z,20.80
2018-02-02T17:51:01.712Z,15.80
2018-02-02T17:53:27.907Z,14.60
2018-02-02T17:55:54.063Z,22.03
2018-02-02T17:58:20.212Z,13.27
2018-02-02T18:00:59.294Z,13.87
2018-02-02T18:03:25.509Z,13.23
2018-02-02T18:05:51.701Z,15.53
2018-02-02T18:08:17.955Z,9.30
2018-02-02T18:10:44.112Z,13.73
2018-02-02T18:13:10.199Z,12.70
2018-02-02T18:15:36.376Z,21.13
2018-02-02T18:18:02.584Z,14.03
2018-02-02T18:20:28.727Z,20.50
2018-02-02T18:22:54.895Z,15.23
2018-02-02T18:25:21.183Z,15.60
2018-02-02T18:27:47.351Z,11.47
2018-02-02T18:30:13.509Z,17.00
2018-02-02T18:32:39.701Z,12.33
2018-02-02T18:35:05.892Z,20.97
2018-02-02T18:37:31.996Z,9.97
2018-02-02T18:39:58.274Z,15.43
2018-02-02T18:42:24.446Z,16.77
2018-02-02T18:44:52.270Z,26.50
2018-02-02T18:47:18.562Z,19.80
2018-02-02T18:49:44.756Z,38.13
2018-02-02T18:52:10.923Z,38.83
2018-02-02T18:54:37.224Z,34.37
2018-02-02T18:57:03.471Z,37.23
2018-02-02T18:59:29.620Z,33.50
2018-02-02T19:01:55.907Z,23.17
2018-02-02T19:04:22.146Z,16.73
2018-02-02T19:06:48.299Z,20.53
2018-02-02T19:09:14.513Z,15.60
2018-02-02T19:11:40.691Z,13.63
2018-02-02T19:14:06.885Z,14.43
2018-02-02T19:16:33.232Z,20.63
2018-02-02T19:19:00.045Z,15.20
2018-02-02T19:21:26.235Z,12.97
2018-02-02T19:23:52.400Z,19.07
2018-02-02T19:26:18.656Z,16.10
2018-02-02T19:28:44.846Z,12.87
2018-02-02T19:31:11.072Z,20.50
2018-02-02T19:33:37.385Z,13.10
2018-02-02T19:36:03.672Z,16.43
2018-02-02T19:38:29.879Z,14.20
2018-02-02T19:40:56.076Z,15.13
2018-02-02T19:43:22.466Z,36.97
2018-02-02T19:45:48.945Z,22.10
2018-02-02T19:48:21.627Z,28.23
2018-02-02T19:50:48.274Z,32.47
2018-02-02T19:53:14.635Z,38.13
2018-02-02T19:55:41.801Z,19.47
2018-02-02T19:58:08.004Z,30.10
2018-02-02T20:00:34.851Z,34.73
2018-02-02T20:03:01.180Z,25.10
2018-02-02T20:05:27.544Z,16.17
2018-02-02T20:07:53.708Z,26.40
2018-02-02T20:10:19.900Z,29.80
2018-02-02T20:12:46.064Z,24.63
2018-02-02T20:15:12.314Z,23.97
2018-02-02T20:17:38.484Z,19.23
2018-02-02T20:20:04.768Z,22.63
2018-02-02T20:22:30.952Z,20.63
2018-02-02T20:24:57.162Z,18.67
2018-02-02T20:27:23.328Z,22.47
2018-02-02T20:29:49.467Z,22.20
2018-02-02T20:32:15.669Z,22.33
2018-02-02T20:34:41.813Z,22.53
2018-02-02T20:37:08.022Z,23.37
2018-02-02T20:39:34.209Z,27.23
2018-02-02T20:42:01.780Z,28.70
2018-02-02T20:44:27.957Z,19.20
2018-02-02T20:46:54.163Z,35.50
2018-02-02T20:49:20.324Z,22.70
2018-02-02T20:51:46.528Z,19.67
2018-02-02T20:54:12.727Z,21.93
2018-02-02T20:56:38.954Z,19.47
2018-02-02T20:59:05.159Z,18.30
2018-02-02T21:01:31.399Z,15.10
2018-02-02T21:03:57.530Z,20.30
2018-02-02T21:06:23.785Z,15.73
2018-02-02T21:08:49.995Z,24.97
2018-02-02T21:11:16.188Z,20.30
2018-02-02T21:13:42.363Z,17.97
2018-02-02T21:16:08.624Z,13.77
2018-02-02T21:18:35.517Z,12.97
2018-02-02T21:21:01.722Z,16.93
2018-02-02T21:23:27.990Z,11.63
2018-02-02T21:25:54.145Z,16.53
2018-02-02T21:28:20.349Z,17.20
2018-02-02T21:30:46.539Z,14.03
2018-02-02T21:33:12.661Z,20.93
2018-02-02T21:35:38.795Z,23.70
2018-02-02T21:38:05.021Z,12.87
2018-02-02T21:40:31.171Z,20.40
2018-02-02T21:42:57.474Z,28.20
2018-02-02T21:45:23.734Z,22.77
2018-02-02T21:47:50.013Z,18.27
2018-02-02T21:50:16.170Z,18.63
2018-02-02T21:52:42.387Z,15.87
2018-02-02T21:55:08.550Z,14.50
2018-02-02T21:57:34.728Z,19.30
2018-02-02T22:00:00.975Z,22.43
2018-02-02T22:02:27.091Z,22.13
2018-02-02T22:04:53.320Z,16.27
2018-02-02T22:07:19.499Z,21.53
2018-02-02T22:09:46.453Z,18.60
2018-02-02T22:12:12.591Z,20.63
2018-02-02T22:14:38.791Z,15.40
2018-02-02T22:17:04.998Z,24.17
2018-02-02T22:19:31.216Z,17.90
2018-02-02T22:21:57.392Z,17.83
2018-02-02T22:24:23.584Z,13.03
2018-02-02T22:26:49.747Z,24.13
2018-02-02T22:29:16.124Z,20.87
2018-02-02T22:31:42.274Z,19.20
2018-02-02T22:34:08.523Z,23.80
2018-02-02T22:36:34.697Z,14.33
2018-02-02T22:39:00.913Z,16.63
2018-02-02T22:41:27.072Z,15.80
2018-02-02T22:43:53.300Z,23.97
2018-02-02T22:46:19.503Z,27.60
2018-02-02T22:48:46.435Z,22.10
2018-02-02T22:51:12.586Z,20.47
2018-02-02T22:53:38.756Z,25.87
2018-02-02T22:56:04.937Z,19.10
2018-02-02T22:58:31.179Z,17.13
2018-02-02T23:00:57.304Z,17.23
2018-02-02T23:03:23.434Z,23.77
2018-02-02T23:05:49.587Z,14.83
2018-02-02T23:08:15.870Z,15.97
2018-02-02T23:10:42.637Z,23.47
2018-02-02T23:13:08.824Z,16.53
2018-02-02T23:15:35.021Z,14.83
2018-02-02T23:18:01.155Z,17.87
2018-02-02T23:20:27.361Z,15.87
2018-02-02T23:22:53.493Z,16.13
2018-02-02T23:25:19.649Z,20.37
2018-02-02T23:27:45.853Z,17.77
2018-02-02T23:30:18.927Z,16.63
2018-02-02T23:32:45.059Z,16.67
2018-02-02T23:35:11.242Z,23.47
2018-02-02T23:37:37.482Z,27.20
2018-02-02T23:40:03.712Z,35.97
2018-02-02T23:42:29.871Z,19.00
2018-02-02T23:44:56.081Z,26.40
2018-02-02T23:47:22.189Z,23.27
2018-02-02T23:49:48.450Z,24.13
2018-02-02T23:52:14.617Z,25.43
2018-02-02T23:54:40.761Z,20.73
2018-02-02T23:57:06.977Z,21.73
2018-02-02T23:59:33.174Z,21.87
